sensor_id;sensor_type;location;lat;lon;timestamp;temperature;humidity
48162;DHT22;33950;48.154;16.316;2022-08-20T00:02:02;22.20;93.10
48162;DHT22;33950;48.154;16.316;2022-08-20T00:04:28;22.30;92.80
48162;DHT22;33950;48.154;16.316;2022-08-20T00:06:54;22.40;92.70
48162;DHT22;33950;48.154;16.316;2022-08-20T00:09:21;22.40;92.60
48162;DHT22;33950;48.154;16.316;2022-08-20T00:11:46;22.40;92.70
48162;DHT22;33950;48.154;16.316;2022-08-20T00:14:12;22.30;92.70
48162;DHT22;33950;48.154;16.316;2022-08-20T00:16:38;22.30;92.80
48162;DHT22;33950;48.154;16.316;2022-08-20T00:19:06;22.40;92.70
48162;DHT22;33950;48.154;16.316;2022-08-20T00:21:32;22.40;92.70
48162;DHT22;33950;48.154;16.316;2022-08-20T00:23:58;22.30;92.70
48162;DHT22;33950;48.154;16.316;2022-08-20T00:26:26;22.40;92.70
48162;DHT22;33950;48.154;16.316;2022-08-20T00:28:52;22.50;92.60
48162;DHT22;33950;48.154;16.316;2022-08-20T00:31:21;22.50;92.50
48162;DHT22;33950;48.154;16.316;2022-08-20T00:33:48;22.50;92.50
48162;DHT22;33950;48.154;16.316;2022-08-20T00:36:15;22.40;92.50
48162;DHT22;33950;48.154;16.316;2022-08-20T00:38:43;22.30;92.70
48162;DHT22;33950;48.154;16.316;2022-08-20T00:41:11;22.30;92.70
48162;DHT22;33950;48.154;16.316;2022-08-20T00:43:40;22.40;92.60
48162;DHT22;33950;48.154;16.316;2022-08-20T00:46:08;22.60;92.40
48162;DHT22;33950;48.154;16.316;2022-08-20T00:48:36;22.70;92.10
48162;DHT22;33950;48.154;16.316;2022-08-20T00:51:06;22.70;92.10
48162;DHT22;33950;48.154;16.316;2022-08-20T00:53:33;22.80;92.00
48162;DHT22;33950;48.154;16.316;2022-08-20T00:56:00;22.90;91.70
48162;DHT22;33950;48.154;16.316;2022-08-20T00:58:27;22.90;91.80
48162;DHT22;33950;48.154;16.316;2022-08-20T01:00:55;22.70;91.80
48162;DHT22;33950;48.154;16.316;2022-08-20T01:03:22;22.60;92.20
48162;DHT22;33950;48.154;16.316;2022-08-20T01:05:50;22.50;92.20
48162;DHT22;33950;48.154;16.316;2022-08-20T01:08:18;22.70;92.10
48162;DHT22;33950;48.154;16.316;2022-08-20T01:10:45;22.70;92.10
48162;DHT22;33950;48.154;16.316;2022-08-20T01:13:16;22.70;91.90
48162;DHT22;33950;48.154;16.316;2022-08-20T01:15:45;22.80;91.80
48162;DHT22;33950;48.154;16.316;2022-08-20T01:18:16;22.80;91.70
48162;DHT22;33950;48.154;16.316;2022-08-20T01:20:44;22.90;91.80
48162;DHT22;33950;48.154;16.316;2022-08-20T01:23:16;23.00;91.60
48162;DHT22;33950;48.154;16.316;2022-08-20T01:25:59;23.20;91.40
48162;DHT22;33950;48.154;16.316;2022-08-20T01:28:33;23.20;91.20
48162;DHT22;33950;48.154;16.316;2022-08-20T01:31:01;23.20;91.40
48162;DHT22;33950;48.154;16.316;2022-08-20T01:33:27;23.00;91.20
48162;DHT22;33950;48.154;16.316;2022-08-20T01:35:53;22.90;91.30
48162;DHT22;33950;48.154;16.316;2022-08-20T01:38:19;22.70;91.80
48162;DHT22;33950;48.154;16.316;2022-08-20T01:41:06;22.60;91.70
48162;DHT22;33950;48.154;16.316;2022-08-20T01:43:34;22.60;91.60
48162;DHT22;33950;48.154;16.316;2022-08-20T01:46:00;22.50;91.90
48162;DHT22;33950;48.154;16.316;2022-08-20T01:48:26;22.40;92.00
48162;DHT22;33950;48.154;16.316;2022-08-20T01:50:57;22.40;91.80
48162;DHT22;33950;48.154;16.316;2022-08-20T01:53:30;22.20;91.90
48162;DHT22;33950;48.154;16.316;2022-08-20T01:55:59;22.30;91.90
48162;DHT22;33950;48.154;16.316;2022-08-20T01:58:25;22.30;91.70
48162;DHT22;33950;48.154;16.316;2022-08-20T02:00:54;22.30;91.70
48162;DHT22;33950;48.154;16.316;2022-08-20T02:03:20;22.30;91.80
48162;DHT22;33950;48.154;16.316;2022-08-20T02:05:45;22.20;91.80
48162;DHT22;33950;48.154;16.316;2022-08-20T02:08:11;22.30;91.80
48162;DHT22;33950;48.154;16.316;2022-08-20T02:10:37;22.20;91.60
48162;DHT22;33950;48.154;16.316;2022-08-20T02:13:04;22.30;91.50
48162;DHT22;33950;48.154;16.316;2022-08-20T02:15:30;22.20;91.70
48162;DHT22;33950;48.154;16.316;2022-08-20T02:17:56;22.10;91.80
48162;DHT22;33950;48.154;16.316;2022-08-20T02:20:27;22.20;91.80
48162;DHT22;33950;48.154;16.316;2022-08-20T02:22:55;22.20;91.50
48162;DHT22;33950;48.154;16.316;2022-08-20T02:25:23;22.20;91.40
48162;DHT22;33950;48.154;16.316;2022-08-20T02:27:50;22.10;91.70
48162;DHT22;33950;48.154;16.316;2022-08-20T02:30:21;22.10;91.40
48162;DHT22;33950;48.154;16.316;2022-08-20T02:32:48;22.00;91.40
48162;DHT22;33950;48.154;16.316;2022-08-20T02:35:14;22.00;91.40
48162;DHT22;33950;48.154;16.316;2022-08-20T02:37:42;22.20;91.20
48162;DHT22;33950;48.154;16.316;2022-08-20T02:40:10;22.20;91.20
48162;DHT22;33950;48.154;16.316;2022-08-20T02:42:37;22.20;91.10
48162;DHT22;33950;48.154;16.316;2022-08-20T02:45:08;22.20;91.00
48162;DHT22;33950;48.154;16.316;2022-08-20T02:47:37;22.20;91.00
48162;DHT22;33950;48.154;16.316;2022-08-20T02:50:05;22.20;91.00
48162;DHT22;33950;48.154;16.316;2022-08-20T02:52:31;22.20;90.90
48162;DHT22;33950;48.154;16.316;2022-08-20T02:54:57;22.20;90.90
48162;DHT22;33950;48.154;16.316;2022-08-20T02:57:23;22.20;91.10
48162;DHT22;33950;48.154;16.316;2022-08-20T02:59:49;22.30;90.80
48162;DHT22;33950;48.154;16.316;2022-08-20T03:02:16;22.40;90.80
48162;DHT22;33950;48.154;16.316;2022-08-20T03:04:44;22.40;90.50
48162;DHT22;33950;48.154;16.316;2022-08-20T03:07:10;22.30;90.60
48162;DHT22;33950;48.154;16.316;2022-08-20T03:09:37;22.30;90.60
48162;DHT22;33950;48.154;16.316;2022-08-20T03:12:03;22.30;90.40
48162;DHT22;33950;48.154;16.316;2022-08-20T03:14:29;22.30;90.50
48162;DHT22;33950;48.154;16.316;2022-08-20T03:16:55;22.30;90.30
48162;DHT22;33950;48.154;16.316;2022-08-20T03:19:21;22.10;90.40
48162;DHT22;33950;48.154;16.316;2022-08-20T03:21:48;22.20;90.50
48162;DHT22;33950;48.154;16.316;2022-08-20T03:24:14;22.20;90.40
48162;DHT22;33950;48.154;16.316;2022-08-20T03:26:40;22.20;90.30
48162;DHT22;33950;48.154;16.316;2022-08-20T03:29:06;22.30;90.30
48162;DHT22;33950;48.154;16.316;2022-08-20T03:31:32;22.20;90.30
48162;DHT22;33950;48.154;16.316;2022-08-20T03:33:58;22.10;90.40
48162;DHT22;33950;48.154;16.316;2022-08-20T03:36:26;22.10;90.40
48162;DHT22;33950;48.154;16.316;2022-08-20T03:38:53;22.10;90.40
48162;DHT22;33950;48.154;16.316;2022-08-20T03:41:19;22.10;90.30
48162;DHT22;33950;48.154;16.316;2022-08-20T03:43:45;22.10;90.30
48162;DHT22;33950;48.154;16.316;2022-08-20T03:46:11;22.00;90.40
48162;DHT22;33950;48.154;16.316;2022-08-20T03:48:37;21.90;90.70
48162;DHT22;33950;48.154;16.316;2022-08-20T03:51:03;21.90;90.70
48162;DHT22;33950;48.154;16.316;2022-08-20T03:53:29;21.80;90.70
48162;DHT22;33950;48.154;16.316;2022-08-20T03:55:59;21.80;90.70
48162;DHT22;33950;48.154;16.316;2022-08-20T03:58:26;21.90;90.60
48162;DHT22;33950;48.154;16.316;2022-08-20T04:00:54;22.00;90.50
48162;DHT22;33950;48.154;16.316;2022-08-20T04:03:21;21.90;90.50
48162;DHT22;33950;48.154;16.316;2022-08-20T04:05:48;21.90;90.40
48162;DHT22;33950;48.154;16.316;2022-08-20T04:08:16;21.90;90.40
48162;DHT22;33950;48.154;16.316;2022-08-20T04:10:44;22.00;90.30
48162;DHT22;33950;48.154;16.316;2022-08-20T04:13:13;22.00;90.20
48162;DHT22;33950;48.154;16.316;2022-08-20T04:15:40;22.00;90.30
48162;DHT22;33950;48.154;16.316;2022-08-20T04:18:07;21.90;90.30
48162;DHT22;33950;48.154;16.316;2022-08-20T04:20:35;21.90;90.20
48162;DHT22;33950;48.154;16.316;2022-08-20T04:23:01;21.80;90.60
48162;DHT22;33950;48.154;16.316;2022-08-20T04:25:28;21.90;90.40
48162;DHT22;33950;48.154;16.316;2022-08-20T04:27:56;21.90;90.20
48162;DHT22;33950;48.154;16.316;2022-08-20T04:30:24;21.80;90.50
48162;DHT22;33950;48.154;16.316;2022-08-20T04:32:51;21.80;90.60
48162;DHT22;33950;48.154;16.316;2022-08-20T04:35:17;21.90;90.30
48162;DHT22;33950;48.154;16.316;2022-08-20T04:37:44;21.90;90.20
48162;DHT22;33950;48.154;16.316;2022-08-20T04:40:14;22.00;90.20
48162;DHT22;33950;48.154;16.316;2022-08-20T04:43:00;22.00;90.20
48162;DHT22;33950;48.154;16.316;2022-08-20T04:45:27;22.10;90.00
48162;DHT22;33950;48.154;16.316;2022-08-20T04:47:53;22.30;89.60
48162;DHT22;33950;48.154;16.316;2022-08-20T04:50:19;22.20;89.70
48162;DHT22;33950;48.154;16.316;2022-08-20T04:52:45;22.20;89.70
48162;DHT22;33950;48.154;16.316;2022-08-20T04:55:14;22.20;89.90
48162;DHT22;33950;48.154;16.316;2022-08-20T04:57:42;22.30;89.60
48162;DHT22;33950;48.154;16.316;2022-08-20T05:00:11;22.30;89.70
48162;DHT22;33950;48.154;16.316;2022-08-20T05:02:41;22.30;89.50
48162;DHT22;33950;48.154;16.316;2022-08-20T05:05:07;22.30;89.20
48162;DHT22;33950;48.154;16.316;2022-08-20T05:07:38;22.40;89.50
48162;DHT22;33950;48.154;16.316;2022-08-20T05:10:06;22.60;89.00
48162;DHT22;33950;48.154;16.316;2022-08-20T05:12:32;22.70;89.20
48162;DHT22;33950;48.154;16.316;2022-08-20T05:14:58;22.70;88.30
48162;DHT22;33950;48.154;16.316;2022-08-20T05:17:24;22.80;88.10
48162;DHT22;33950;48.154;16.316;2022-08-20T05:19:52;22.60;88.10
48162;DHT22;33950;48.154;16.316;2022-08-20T05:22:17;22.50;88.30
48162;DHT22;33950;48.154;16.316;2022-08-20T05:24:43;22.50;88.60
48162;DHT22;33950;48.154;16.316;2022-08-20T05:27:12;22.40;88.70
48162;DHT22;33950;48.154;16.316;2022-08-20T05:29:38;22.30;89.20
48162;DHT22;33950;48.154;16.316;2022-08-20T05:32:04;22.40;89.20
48162;DHT22;33950;48.154;16.316;2022-08-20T05:34:30;22.60;89.10
48162;DHT22;33950;48.154;16.316;2022-08-20T05:36:57;22.50;88.70
48162;DHT22;33950;48.154;16.316;2022-08-20T05:39:23;22.60;88.80
48162;DHT22;33950;48.154;16.316;2022-08-20T05:41:49;22.60;88.90
48162;DHT22;33950;48.154;16.316;2022-08-20T05:44:16;22.60;88.60
48162;DHT22;33950;48.154;16.316;2022-08-20T05:46:44;22.70;88.60
48162;DHT22;33950;48.154;16.316;2022-08-20T05:49:14;22.70;88.70
48162;DHT22;33950;48.154;16.316;2022-08-20T05:51:40;22.70;88.30
48162;DHT22;33950;48.154;16.316;2022-08-20T05:54:08;22.60;88.60
48162;DHT22;33950;48.154;16.316;2022-08-20T05:56:35;22.50;89.10
48162;DHT22;33950;48.154;16.316;2022-08-20T05:59:03;22.40;89.30
48162;DHT22;33950;48.154;16.316;2022-08-20T06:01:30;22.30;90.10
48162;DHT22;33950;48.154;16.316;2022-08-20T06:03:56;22.30;89.90
48162;DHT22;33950;48.154;16.316;2022-08-20T06:06:40;22.40;89.70
48162;DHT22;33950;48.154;16.316;2022-08-20T06:09:07;22.50;89.50
48162;DHT22;33950;48.154;16.316;2022-08-20T06:11:33;22.40;89.70
48162;DHT22;33950;48.154;16.316;2022-08-20T06:13:59;22.20;90.10
48162;DHT22;33950;48.154;16.316;2022-08-20T06:16:25;22.00;90.20
48162;DHT22;33950;48.154;16.316;2022-08-20T06:18:51;21.90;90.50
48162;DHT22;33950;48.154;16.316;2022-08-20T06:21:17;21.80;90.50
48162;DHT22;33950;48.154;16.316;2022-08-20T06:23:43;21.80;90.50
48162;DHT22;33950;48.154;16.316;2022-08-20T06:26:11;22.00;90.50
48162;DHT22;33950;48.154;16.316;2022-08-20T06:28:37;22.00;90.40
48162;DHT22;33950;48.154;16.316;2022-08-20T06:31:03;22.00;90.50
48162;DHT22;33950;48.154;16.316;2022-08-20T06:33:29;21.90;90.50
48162;DHT22;33950;48.154;16.316;2022-08-20T06:35:54;21.70;90.70
48162;DHT22;33950;48.154;16.316;2022-08-20T06:38:21;21.60;91.10
48162;DHT22;33950;48.154;16.316;2022-08-20T06:40:47;21.60;91.20
48162;DHT22;33950;48.154;16.316;2022-08-20T06:43:14;21.70;90.90
48162;DHT22;33950;48.154;16.316;2022-08-20T06:45:40;21.70;90.90
48162;DHT22;33950;48.154;16.316;2022-08-20T06:48:08;21.70;90.90
48162;DHT22;33950;48.154;16.316;2022-08-20T06:50:37;21.60;90.90
48162;DHT22;33950;48.154;16.316;2022-08-20T06:53:04;21.70;91.10
48162;DHT22;33950;48.154;16.316;2022-08-20T06:55:30;21.80;91.00
48162;DHT22;33950;48.154;16.316;2022-08-20T06:57:58;21.90;90.80
48162;DHT22;33950;48.154;16.316;2022-08-20T07:00:27;21.80;90.70
48162;DHT22;33950;48.154;16.316;2022-08-20T07:02:53;21.60;90.90
48162;DHT22;33950;48.154;16.316;2022-08-20T07:05:18;21.50;91.20
48162;DHT22;33950;48.154;16.316;2022-08-20T07:07:45;21.60;91.30
48162;DHT22;33950;48.154;16.316;2022-08-20T07:10:13;21.60;91.20
48162;DHT22;33950;48.154;16.316;2022-08-20T07:12:39;21.70;90.60
48162;DHT22;33950;48.154;16.316;2022-08-20T07:15:07;21.60;90.70
48162;DHT22;33950;48.154;16.316;2022-08-20T07:17:35;21.70;90.70
48162;DHT22;33950;48.154;16.316;2022-08-20T07:20:03;21.80;90.80
48162;DHT22;33950;48.154;16.316;2022-08-20T07:22:29;21.80;90.70
48162;DHT22;33950;48.154;16.316;2022-08-20T07:24:55;21.70;90.50
48162;DHT22;33950;48.154;16.316;2022-08-20T07:27:22;21.70;90.60
48162;DHT22;33950;48.154;16.316;2022-08-20T07:29:48;21.70;90.70
48162;DHT22;33950;48.154;16.316;2022-08-20T07:32:32;21.70;90.70
48162;DHT22;33950;48.154;16.316;2022-08-20T07:35:08;21.70;90.60
48162;DHT22;33950;48.154;16.316;2022-08-20T07:37:37;21.70;90.70
48162;DHT22;33950;48.154;16.316;2022-08-20T07:40:04;21.80;90.70
48162;DHT22;33950;48.154;16.316;2022-08-20T07:42:30;21.90;90.60
48162;DHT22;33950;48.154;16.316;2022-08-20T07:44:55;21.90;90.70
48162;DHT22;33950;48.154;16.316;2022-08-20T07:47:22;22.00;90.60
48162;DHT22;33950;48.154;16.316;2022-08-20T07:49:47;22.10;90.50
48162;DHT22;33950;48.154;16.316;2022-08-20T07:52:15;22.20;90.40
48162;DHT22;33950;48.154;16.316;2022-08-20T07:54:40;22.20;90.40
48162;DHT22;33950;48.154;16.316;2022-08-20T07:57:08;22.10;90.20
48162;DHT22;33950;48.154;16.316;2022-08-20T07:59:36;22.20;90.30
48162;DHT22;33950;48.154;16.316;2022-08-20T08:02:04;21.90;90.20
48162;DHT22;33950;48.154;16.316;2022-08-20T08:04:29;21.70;90.70
48162;DHT22;33950;48.154;16.316;2022-08-20T08:06:55;21.70;90.70
48162;DHT22;33950;48.154;16.316;2022-08-20T08:09:26;21.80;90.60
48162;DHT22;33950;48.154;16.316;2022-08-20T08:11:53;21.80;90.40
48162;DHT22;33950;48.154;16.316;2022-08-20T08:14:24;21.80;90.40
48162;DHT22;33950;48.154;16.316;2022-08-20T08:16:52;21.70;90.30
48162;DHT22;33950;48.154;16.316;2022-08-20T08:19:18;21.80;90.20
48162;DHT22;33950;48.154;16.316;2022-08-20T08:21:44;22.00;90.10
48162;DHT22;33950;48.154;16.316;2022-08-20T08:24:11;21.90;90.00
48162;DHT22;33950;48.154;16.316;2022-08-20T08:26:38;21.90;90.10
48162;DHT22;33950;48.154;16.316;2022-08-20T08:29:04;22.00;89.80
48162;DHT22;33950;48.154;16.316;2022-08-20T08:31:32;22.10;90.10
48162;DHT22;33950;48.154;16.316;2022-08-20T08:33:58;22.20;90.20
48162;DHT22;33950;48.154;16.316;2022-08-20T08:36:23;22.30;89.40
48162;DHT22;33950;48.154;16.316;2022-08-20T08:38:51;22.30;89.30
48162;DHT22;33950;48.154;16.316;2022-08-20T08:41:19;22.40;89.30
48162;DHT22;33950;48.154;16.316;2022-08-20T08:43:50;22.40;88.70
48162;DHT22;33950;48.154;16.316;2022-08-20T08:46:26;22.50;89.30
48162;DHT22;33950;48.154;16.316;2022-08-20T08:48:55;22.70;89.10
48162;DHT22;33950;48.154;16.316;2022-08-20T08:51:27;22.90;88.60
48162;DHT22;33950;48.154;16.316;2022-08-20T08:53:55;22.90;87.80
48162;DHT22;33950;48.154;16.316;2022-08-20T08:56:22;23.00;88.00
48162;DHT22;33950;48.154;16.316;2022-08-20T08:58:50;23.00;87.00
48162;DHT22;33950;48.154;16.316;2022-08-20T09:01:22;23.00;86.20
48162;DHT22;33950;48.154;16.316;2022-08-20T09:03:50;22.90;86.60
48162;DHT22;33950;48.154;16.316;2022-08-20T09:06:18;22.90;86.20
48162;DHT22;33950;48.154;16.316;2022-08-20T09:08:50;23.00;86.50
48162;DHT22;33950;48.154;16.316;2022-08-20T09:11:18;23.00;86.20
48162;DHT22;33950;48.154;16.316;2022-08-20T09:13:44;22.90;86.40
48162;DHT22;33950;48.154;16.316;2022-08-20T09:16:13;22.80;86.80
48162;DHT22;33950;48.154;16.316;2022-08-20T09:18:39;22.70;87.10
48162;DHT22;33950;48.154;16.316;2022-08-20T09:21:06;22.90;87.30
48162;DHT22;33950;48.154;16.316;2022-08-20T09:23:32;23.00;86.30
48162;DHT22;33950;48.154;16.316;2022-08-20T09:25:59;23.10;86.40
48162;DHT22;33950;48.154;16.316;2022-08-20T09:28:25;23.20;86.40
48162;DHT22;33950;48.154;16.316;2022-08-20T09:30:51;23.20;85.90
48162;DHT22;33950;48.154;16.316;2022-08-20T09:33:18;23.20;86.20
48162;DHT22;33950;48.154;16.316;2022-08-20T09:35:44;23.20;85.90
48162;DHT22;33950;48.154;16.316;2022-08-20T09:38:11;23.20;85.90
48162;DHT22;33950;48.154;16.316;2022-08-20T09:40:37;23.20;86.10
48162;DHT22;33950;48.154;16.316;2022-08-20T09:43:04;23.40;86.30
48162;DHT22;33950;48.154;16.316;2022-08-20T09:45:30;23.50;85.20
48162;DHT22;33950;48.154;16.316;2022-08-20T09:47:56;23.80;84.90
48162;DHT22;33950;48.154;16.316;2022-08-20T09:50:23;23.90;84.00
48162;DHT22;33950;48.154;16.316;2022-08-20T09:52:50;23.90;84.50
48162;DHT22;33950;48.154;16.316;2022-08-20T09:55:20;23.80;83.60
48162;DHT22;33950;48.154;16.316;2022-08-20T09:57:47;23.80;84.40
48162;DHT22;33950;48.154;16.316;2022-08-20T10:00:14;23.70;84.10
48162;DHT22;33950;48.154;16.316;2022-08-20T10:02:41;23.70;84.50
48162;DHT22;33950;48.154;16.316;2022-08-20T10:05:08;23.50;84.70
48162;DHT22;33950;48.154;16.316;2022-08-20T10:07:37;23.50;84.70
48162;DHT22;33950;48.154;16.316;2022-08-20T10:10:04;23.60;84.50
48162;DHT22;33950;48.154;16.316;2022-08-20T10:12:30;23.70;84.00
48162;DHT22;33950;48.154;16.316;2022-08-20T10:14:55;23.70;84.30
48162;DHT22;33950;48.154;16.316;2022-08-20T10:17:21;23.70;84.30
48162;DHT22;33950;48.154;16.316;2022-08-20T10:19:47;23.70;84.50
48162;DHT22;33950;48.154;16.316;2022-08-20T10:22:13;23.80;84.30
48162;DHT22;33950;48.154;16.316;2022-08-20T10:24:40;23.80;83.80
48162;DHT22;33950;48.154;16.316;2022-08-20T10:27:06;24.00;84.40
48162;DHT22;33950;48.154;16.316;2022-08-20T10:29:32;24.30;83.70
48162;DHT22;33950;48.154;16.316;2022-08-20T10:32:07;24.50;82.60
48162;DHT22;33950;48.154;16.316;2022-08-20T10:34:34;24.50;82.80
48162;DHT22;33950;48.154;16.316;2022-08-20T10:36:59;24.70;82.90
48162;DHT22;33950;48.154;16.316;2022-08-20T10:39:25;24.80;82.50
48162;DHT22;33950;48.154;16.316;2022-08-20T10:41:52;25.00;82.50
48162;DHT22;33950;48.154;16.316;2022-08-20T10:44:18;25.30;82.10
48162;DHT22;33950;48.154;16.316;2022-08-20T10:46:44;25.10;80.90
48162;DHT22;33950;48.154;16.316;2022-08-20T10:49:10;25.10;81.60
48162;DHT22;33950;48.154;16.316;2022-08-20T10:51:36;25.30;81.60
48162;DHT22;33950;48.154;16.316;2022-08-20T10:54:02;25.50;80.60
48162;DHT22;33950;48.154;16.316;2022-08-20T10:56:28;25.50;80.00
48162;DHT22;33950;48.154;16.316;2022-08-20T10:58:55;25.40;80.40
48162;DHT22;33950;48.154;16.316;2022-08-20T11:01:21;25.20;80.80
48162;DHT22;33950;48.154;16.316;2022-08-20T11:03:47;25.10;81.10
48162;DHT22;33950;48.154;16.316;2022-08-20T11:06:12;25.00;81.20
48162;DHT22;33950;48.154;16.316;2022-08-20T11:08:38;24.80;81.70
48162;DHT22;33950;48.154;16.316;2022-08-20T11:11:04;24.60;81.80
48162;DHT22;33950;48.154;16.316;2022-08-20T11:13:30;24.50;81.50
48162;DHT22;33950;48.154;16.316;2022-08-20T11:15:58;24.40;82.00
48162;DHT22;33950;48.154;16.316;2022-08-20T11:18:23;24.40;82.10
48162;DHT22;33950;48.154;16.316;2022-08-20T11:20:49;24.40;82.00
48162;DHT22;33950;48.154;16.316;2022-08-20T11:23:16;24.50;82.10
48162;DHT22;33950;48.154;16.316;2022-08-20T11:25:41;24.50;82.30
48162;DHT22;33950;48.154;16.316;2022-08-20T11:28:07;24.50;81.90
48162;DHT22;33950;48.154;16.316;2022-08-20T11:30:34;24.50;82.40
48162;DHT22;33950;48.154;16.316;2022-08-20T11:33:02;24.40;82.40
48162;DHT22;33950;48.154;16.316;2022-08-20T11:35:30;24.40;82.00
48162;DHT22;33950;48.154;16.316;2022-08-20T11:37:57;24.40;82.20
48162;DHT22;33950;48.154;16.316;2022-08-20T11:40:24;24.30;82.20
48162;DHT22;33950;48.154;16.316;2022-08-20T11:42:50;24.40;81.90
48162;DHT22;33950;48.154;16.316;2022-08-20T11:45:17;24.30;82.70
48162;DHT22;33950;48.154;16.316;2022-08-20T11:47:43;24.30;82.90
48162;DHT22;33950;48.154;16.316;2022-08-20T11:50:13;24.20;82.70
48162;DHT22;33950;48.154;16.316;2022-08-20T11:52:40;24.10;83.80
48162;DHT22;33950;48.154;16.316;2022-08-20T11:55:07;24.30;83.60
48162;DHT22;33950;48.154;16.316;2022-08-20T11:57:37;24.40;83.60
48162;DHT22;33950;48.154;16.316;2022-08-20T12:00:06;24.40;82.90
48162;DHT22;33950;48.154;16.316;2022-08-20T12:02:34;24.20;83.50
48162;DHT22;33950;48.154;16.316;2022-08-20T12:05:00;24.10;83.50
48162;DHT22;33950;48.154;16.316;2022-08-20T12:07:27;23.80;84.00
48162;DHT22;33950;48.154;16.316;2022-08-20T12:09:53;23.70;84.30
48162;DHT22;33950;48.154;16.316;2022-08-20T12:12:20;23.50;84.60
48162;DHT22;33950;48.154;16.316;2022-08-20T12:14:48;23.40;84.80
48162;DHT22;33950;48.154;16.316;2022-08-20T12:17:16;23.20;85.50
48162;DHT22;33950;48.154;16.316;2022-08-20T12:19:44;23.10;86.40
48162;DHT22;33950;48.154;16.316;2022-08-20T12:22:11;23.00;86.30
48162;DHT22;33950;48.154;16.316;2022-08-20T12:24:38;22.90;86.90
48162;DHT22;33950;48.154;16.316;2022-08-20T12:27:09;22.80;86.50
48162;DHT22;33950;48.154;16.316;2022-08-20T12:29:36;22.70;86.80
48162;DHT22;33950;48.154;16.316;2022-08-20T12:32:02;22.80;86.80
48162;DHT22;33950;48.154;16.316;2022-08-20T12:34:30;22.90;86.70
48162;DHT22;33950;48.154;16.316;2022-08-20T12:36:59;22.90;86.70
48162;DHT22;33950;48.154;16.316;2022-08-20T12:39:25;23.00;86.40
48162;DHT22;33950;48.154;16.316;2022-08-20T12:41:52;23.10;86.10
48162;DHT22;33950;48.154;16.316;2022-08-20T12:44:18;22.90;86.10
48162;DHT22;33950;48.154;16.316;2022-08-20T12:46:44;22.70;86.80
48162;DHT22;33950;48.154;16.316;2022-08-20T12:49:09;22.60;87.50
48162;DHT22;33950;48.154;16.316;2022-08-20T12:51:35;22.50;87.50
48162;DHT22;33950;48.154;16.316;2022-08-20T12:54:01;22.40;87.90
48162;DHT22;33950;48.154;16.316;2022-08-20T12:56:27;22.40;88.00
48162;DHT22;33950;48.154;16.316;2022-08-20T12:58:54;22.40;88.00
48162;DHT22;33950;48.154;16.316;2022-08-20T13:01:20;22.30;88.30
48162;DHT22;33950;48.154;16.316;2022-08-20T13:03:46;22.30;88.20
48162;DHT22;33950;48.154;16.316;2022-08-20T13:06:11;22.20;88.60
48162;DHT22;33950;48.154;16.316;2022-08-20T13:08:37;22.40;88.80
48162;DHT22;33950;48.154;16.316;2022-08-20T13:11:03;22.70;88.00
48162;DHT22;33950;48.154;16.316;2022-08-20T13:13:29;23.00;87.20
48162;DHT22;33950;48.154;16.316;2022-08-20T13:15:56;23.20;86.20
48162;DHT22;33950;48.154;16.316;2022-08-20T13:18:22;23.10;86.20
48162;DHT22;33950;48.154;16.316;2022-08-20T13:20:47;23.00;86.90
48162;DHT22;33950;48.154;16.316;2022-08-20T13:23:13;23.10;86.40
48162;DHT22;33950;48.154;16.316;2022-08-20T13:25:39;23.10;86.40
48162;DHT22;33950;48.154;16.316;2022-08-20T13:28:05;23.20;86.00
48162;DHT22;33950;48.154;16.316;2022-08-20T13:30:32;23.10;86.00
48162;DHT22;33950;48.154;16.316;2022-08-20T13:33:00;23.10;86.20
48162;DHT22;33950;48.154;16.316;2022-08-20T13:35:25;23.10;86.00
48162;DHT22;33950;48.154;16.316;2022-08-20T13:37:51;23.30;85.70
48162;DHT22;33950;48.154;16.316;2022-08-20T13:40:18;23.50;85.80
48162;DHT22;33950;48.154;16.316;2022-08-20T13:42:44;23.50;84.30
48162;DHT22;33950;48.154;16.316;2022-08-20T13:45:10;23.50;84.90
48162;DHT22;33950;48.154;16.316;2022-08-20T13:47:37;23.60;84.60
48162;DHT22;33950;48.154;16.316;2022-08-20T13:50:06;23.70;84.40
48162;DHT22;33950;48.154;16.316;2022-08-20T13:52:34;23.70;84.10
48162;DHT22;33950;48.154;16.316;2022-08-20T13:55:01;23.60;84.30
48162;DHT22;33950;48.154;16.316;2022-08-20T13:57:27;23.30;85.10
48162;DHT22;33950;48.154;16.316;2022-08-20T13:59:56;23.20;85.40
48162;DHT22;33950;48.154;16.316;2022-08-20T14:02:22;23.20;86.30
48162;DHT22;33950;48.154;16.316;2022-08-20T14:04:49;23.20;85.80
48162;DHT22;33950;48.154;16.316;2022-08-20T14:07:18;23.10;85.50
48162;DHT22;33950;48.154;16.316;2022-08-20T14:09:46;23.00;86.10
48162;DHT22;33950;48.154;16.316;2022-08-20T14:12:13;22.80;86.50
48162;DHT22;33950;48.154;16.316;2022-08-20T14:14:39;22.60;87.40
48162;DHT22;33950;48.154;16.316;2022-08-20T14:17:16;22.40;88.10
48162;DHT22;33950;48.154;16.316;2022-08-20T14:19:42;22.50;88.50
48162;DHT22;33950;48.154;16.316;2022-08-20T14:22:08;22.40;88.40
48162;DHT22;33950;48.154;16.316;2022-08-20T14:24:35;22.20;88.70
48162;DHT22;33950;48.154;16.316;2022-08-20T14:27:02;22.20;89.20
48162;DHT22;33950;48.154;16.316;2022-08-20T14:29:31;22.10;89.50
48162;DHT22;33950;48.154;16.316;2022-08-20T14:31:57;22.00;89.60
48162;DHT22;33950;48.154;16.316;2022-08-20T14:34:23;21.90;89.90
48162;DHT22;33950;48.154;16.316;2022-08-20T14:36:49;22.00;90.40
48162;DHT22;33950;48.154;16.316;2022-08-20T14:39:18;22.10;90.00
48162;DHT22;33950;48.154;16.316;2022-08-20T14:41:47;22.10;90.10
48162;DHT22;33950;48.154;16.316;2022-08-20T14:44:13;22.00;90.10
48162;DHT22;33950;48.154;16.316;2022-08-20T14:46:39;21.90;90.20
48162;DHT22;33950;48.154;16.316;2022-08-20T14:49:04;21.70;90.40
48162;DHT22;33950;48.154;16.316;2022-08-20T14:51:30;21.70;90.60
48162;DHT22;33950;48.154;16.316;2022-08-20T14:53:56;21.60;90.80
48162;DHT22;33950;48.154;16.316;2022-08-20T14:56:21;21.60;91.00
48162;DHT22;33950;48.154;16.316;2022-08-20T14:58:49;21.60;91.00
48162;DHT22;33950;48.154;16.316;2022-08-20T15:01:15;21.60;91.00
48162;DHT22;33950;48.154;16.316;2022-08-20T15:03:41;21.60;91.10
48162;DHT22;33950;48.154;16.316;2022-08-20T15:06:07;21.70;91.00
48162;DHT22;33950;48.154;16.316;2022-08-20T15:08:33;21.80;91.00
48162;DHT22;33950;48.154;16.316;2022-08-20T15:10:59;21.90;90.80
48162;DHT22;33950;48.154;16.316;2022-08-20T15:13:24;21.80;90.90
48162;DHT22;33950;48.154;16.316;2022-08-20T15:15:52;21.70;91.00